Ansonia, OH

8:10 AM EDT on August 31, 2014 (GMT -0400)
B's Weather Center | Change Station
CLOSE
Current Station
Personal Weather Station
Location: Versailles, OH
Elevation: 1020 ft
Nearby Weather Stations

Elev 1020 ft 40.24 °N, 84.60 °W | Updated 13 minutes ago

Overcast
Overcast
68.9 °F
Feels Like 68.9 °F
N
0.0
Wind Variable Wind from West

Today
High -- | Low -- °F
--% Chance of Precip.
Yesterday
High -- | Low -- °F
Precip. -- in
7:05 AM 8:11 PM
Waxing Crescent, 30% visible
Pressure 30.02 in
Visibility 5.0 miles
Clouds Scattered Clouds 400 ft
Mostly Cloudy 800 ft
Overcast 1400 ft
Dew Point 68 °F
Humidity 96%
Rainfall 0.74 in
Snow Depth Not available.
UV 0 out of 12
Pollen 2.30 out of 12
Ozone Good
PM2.5 Moderate
Flu Activity Not available.
METAR KVES 311155Z AUTO 00000KT 5SM BR SCT004 BKN008 OVC014 20/20 A3002 RMK AO2 LTG DSNT E AND SE P0001

More Conditions Fewer Conditions

Pressure 30.02 in
Visibility 5.0 miles
Clouds Scattered Clouds 400 ft
Mostly Cloudy 800 ft
Overcast 1400 ft
Dew Point 68 °F
Humidity 96%
Rainfall 0.74 in
Snow Depth Not available.
UV 0 out of 12
Pollen 2.30 out of 12
Ozone Good
PM2.5 Moderate
Flu Activity Not available.
METAR KVES 311155Z AUTO 00000KT 5SM BR SCT004 BKN008 OVC014 20/20 A3002 RMK AO2 LTG DSNT E AND SE P0001

More Conditions Fewer Conditions

10-Day Weather Forecast

Almanac

Astronomy

Aug. 31, 2014 Rise Set
Actual Time 7:05 AM EDT 8:11 PM EDT
Civil Twilight 6:37 AM EDT 8:39 PM EDT
Nautical Twilight 6:03 AM EDT 9:12 PM EDT
Astronomical Twilight 5:28 AM EDT 9:47 PM EDT
Moon 12:51 PM EDT 11:25 PM EDT
Length of Visible Light 14h 02m
Length of Day
13h 06m
Tomorrow will be 2m 32s shorter.
Waxing Crescent, 30% of the Moon is Illuminated
Today
Waxing Crescent
Sep 2
First Quarter
Sep 8
Full
Sep 15
Last Quarter
Sep 24
New

Today's Extremes

State Highs State Lows

Community

WunderPhotos

Upload Photos

1,748,853 photos uploaded!

Nearby

Air Quality

  Air Quality AQ Index Pollutant
Yesterday Moderate
PM2.5
Yesterday Moderate
OZONE
Current Moderate
PM2.5
Current Good
OZONE
Sunday Good
PM2.5
Sunday Good
OZONE
Monday Moderate
PM2.5
Monday Good
OZONE
Tuesday Moderate
PM2.5
Tuesday Good
OZONE

Snow Depth

Station Depth Elevation
No new snow has been reported.

Earthquake Activity

City Distance Mag. Time & Date
No recent earthquake activity has been reported nearby.
Minimum magnitude displayed is 2.5.

Coastal Water Temperatures

Place Temperature
No Stations Reporting

Nearby Weather Stations